< Typhoon 196119 1961 Season Typhoon 196121 >
Typhoon 196120 (PAMELA)
General InformationTrack Information on Google Maps || Disaster Info.ResourceGoogle EarthGE AnimationAtom FeedGeoJSON
Detalied Best Track (Time Zone = UTC)
Year Month Day Hour Lat. Long. Pressure (hPa) Wind (kt) Class Image Chart
1961 9 5 00 18.0 155.0 1008 0 2 -- Chart
1961 9 5 06 17.5 153.5 1006 0 2 -- Chart
1961 9 5 12 17.3 151.4 1008 0 2 -- Chart
1961 9 5 18 16.3 149.4 1006 0 2 -- Chart
1961 9 6 00 16.2 147.3 1007 0 2 -- Chart
1961 9 6 06 15.0 145.3 1005 0 2 -- Chart
1961 9 6 12 16.0 142.5 1006 0 2 -- Chart
1961 9 6 18 17.0 141.0 1004 0 2 -- Chart
1961 9 7 00 19.0 140.7 1006 0 2 -- Chart
1961 9 7 06 19.0 139.0 1005 0 2 -- Chart
1961 9 7 12 19.0 138.0 1005 0 2 -- Chart
1961 9 7 18 19.0 137.0 1004 0 2 -- Chart
1961 9 8 00 19.5 136.8 1000 0 2 -- Chart
1961 9 8 06 19.7 136.3 1003 0 2 -- Chart
1961 9 8 12 20.0 136.0 1002 0 2 -- Chart
1961 9 8 18 20.2 135.7 1002 0 2 -- Chart
1961 9 9 00 20.5 135.5 1000 0 2 -- Chart
1961 9 9 06 20.8 135.2 995 0 9 -- Chart
1961 9 9 12 21.3 134.9 990 0 9 -- Chart
1961 9 9 18 21.9 134.3 980 0 9 -- Chart
1961 9 10 00 22.5 133.4 970 0 9 -- Chart
1961 9 10 06 23.5 132.0 965 0 9 -- Chart
1961 9 10 12 23.7 130.4 955 0 9 -- Chart
1961 9 10 18 23.7 128.9 945 0 9 -- Chart
1961 9 11 00 23.7 127.5 930 0 9 -- Chart
1961 9 11 06 23.7 125.8 915 0 9 -- Chart
1961 9 11 12 23.7 124.0 910 0 9 -- Chart
1961 9 11 18 23.7 122.0 910 0 9 -- Chart
1961 9 12 00 24.2 120.3 930 0 9 -- Chart
1961 9 12 06 24.6 118.7 940 0 9 -- Chart
1961 9 12 12 24.7 117.0 980 0 9 -- Chart
1961 9 12 18 25.5 115.6 995 0 9 -- Chart
1961 9 13 00 27.0 115.3 996 0 2 -- Chart
1961 9 13 06 27.1 116.0 1000 0 2 -- Chart
1961 9 13 12 27.4 115.9 1000 0 2 -- Chart
1961 9 13 18 27.9 115.9 1002 0 2 -- Chart
Japan Meteorological Agency Best Track Data | Correction Date : 2013-03-19
< Typhoon 196119 1961 Season Typhoon 196121 >

Help